sensor_id;sensor_type;location;lat;lon;timestamp;P1;durP1;ratioP1;P2;durP2;ratioP2
66966;SDS011;53900;51.468;-2.586;2022-07-23T00:01:17;8.00;;;2.85;;
66966;SDS011;53900;51.468;-2.586;2022-07-23T00:03:43;9.50;;;2.92;;
66966;SDS011;53900;51.468;-2.586;2022-07-23T00:06:08;9.05;;;3.13;;
66966;SDS011;53900;51.468;-2.586;2022-07-23T00:08:34;14.05;;;3.10;;
66966;SDS011;53900;51.468;-2.586;2022-07-23T00:10:59;7.20;;;2.55;;
66966;SDS011;53900;51.468;-2.586;2022-07-23T00:13:26;10.93;;;2.80;;
66966;SDS011;53900;51.468;-2.586;2022-07-23T00:15:51;10.15;;;2.90;;
66966;SDS011;53900;51.468;-2.586;2022-07-23T00:18:17;6.55;;;3.17;;
66966;SDS011;53900;51.468;-2.586;2022-07-23T00:20:43;10.05;;;3.45;;
66966;SDS011;53900;51.468;-2.586;2022-07-23T00:23:08;10.88;;;3.15;;
66966;SDS011;53900;51.468;-2.586;2022-07-23T00:25:33;9.75;;;3.63;;
66966;SDS011;53900;51.468;-2.586;2022-07-23T00:27:59;7.43;;;3.50;;
66966;SDS011;53900;51.468;-2.586;2022-07-23T00:30:25;11.27;;;3.80;;
66966;SDS011;53900;51.468;-2.586;2022-07-23T00:32:55;9.00;;;4.43;;
66966;SDS011;53900;51.468;-2.586;2022-07-23T00:35:22;8.35;;;3.50;;
66966;SDS011;53900;51.468;-2.586;2022-07-23T00:37:48;12.15;;;3.45;;
66966;SDS011;53900;51.468;-2.586;2022-07-23T00:40:14;9.63;;;3.92;;
66966;SDS011;53900;51.468;-2.586;2022-07-23T00:42:40;11.95;;;3.72;;
66966;SDS011;53900;51.468;-2.586;2022-07-23T00:45:06;9.02;;;3.35;;
66966;SDS011;53900;51.468;-2.586;2022-07-23T00:47:32;12.43;;;3.30;;
66966;SDS011;53900;51.468;-2.586;2022-07-23T00:49:58;8.52;;;3.08;;
66966;SDS011;53900;51.468;-2.586;2022-07-23T00:52:23;9.85;;;3.30;;
66966;SDS011;53900;51.468;-2.586;2022-07-23T00:54:49;14.02;;;4.22;;
66966;SDS011;53900;51.468;-2.586;2022-07-23T00:57:15;11.65;;;3.10;;
66966;SDS011;53900;51.468;-2.586;2022-07-23T00:59:40;12.18;;;3.45;;
66966;SDS011;53900;51.468;-2.586;2022-07-23T01:02:06;12.85;;;3.38;;
66966;SDS011;53900;51.468;-2.586;2022-07-23T01:04:31;7.63;;;3.20;;
66966;SDS011;53900;51.468;-2.586;2022-07-23T01:06:57;11.30;;;4.03;;
66966;SDS011;53900;51.468;-2.586;2022-07-23T01:09:23;9.50;;;3.67;;
66966;SDS011;53900;51.468;-2.586;2022-07-23T01:11:48;10.02;;;3.17;;
66966;SDS011;53900;51.468;-2.586;2022-07-23T01:14:16;13.15;;;3.30;;
66966;SDS011;53900;51.468;-2.586;2022-07-23T01:16:43;11.25;;;3.10;;
66966;SDS011;53900;51.468;-2.586;2022-07-23T01:19:09;11.27;;;3.13;;
66966;SDS011;53900;51.468;-2.586;2022-07-23T01:21:36;9.27;;;3.30;;
66966;SDS011;53900;51.468;-2.586;2022-07-23T01:24:02;6.78;;;2.85;;
66966;SDS011;53900;51.468;-2.586;2022-07-23T01:26:29;9.23;;;3.25;;
66966;SDS011;53900;51.468;-2.586;2022-07-23T01:28:54;7.85;;;2.95;;
66966;SDS011;53900;51.468;-2.586;2022-07-23T01:31:20;7.93;;;3.08;;
66966;SDS011;53900;51.468;-2.586;2022-07-23T01:33:45;7.57;;;2.95;;
66966;SDS011;53900;51.468;-2.586;2022-07-23T01:36:11;9.40;;;2.83;;
66966;SDS011;53900;51.468;-2.586;2022-07-23T01:38:36;11.35;;;3.75;;
66966;SDS011;53900;51.468;-2.586;2022-07-23T01:41:01;5.93;;;2.72;;
66966;SDS011;53900;51.468;-2.586;2022-07-23T01:43:27;9.43;;;3.30;;
66966;SDS011;53900;51.468;-2.586;2022-07-23T01:45:52;6.20;;;2.90;;
66966;SDS011;53900;51.468;-2.586;2022-07-23T01:48:18;6.65;;;3.20;;
66966;SDS011;53900;51.468;-2.586;2022-07-23T01:50:45;9.38;;;3.05;;
66966;SDS011;53900;51.468;-2.586;2022-07-23T01:53:11;10.18;;;3.85;;
66966;SDS011;53900;51.468;-2.586;2022-07-23T01:55:37;8.15;;;3.10;;
66966;SDS011;53900;51.468;-2.586;2022-07-23T01:58:02;10.98;;;3.55;;
66966;SDS011;53900;51.468;-2.586;2022-07-23T02:00:27;7.32;;;3.35;;
66966;SDS011;53900;51.468;-2.586;2022-07-23T02:02:53;6.90;;;3.50;;
66966;SDS011;53900;51.468;-2.586;2022-07-23T02:05:18;7.88;;;3.20;;
66966;SDS011;53900;51.468;-2.586;2022-07-23T02:07:44;10.68;;;3.80;;
66966;SDS011;53900;51.468;-2.586;2022-07-23T02:10:09;8.43;;;3.42;;
66966;SDS011;53900;51.468;-2.586;2022-07-23T02:12:34;14.63;;;3.67;;
66966;SDS011;53900;51.468;-2.586;2022-07-23T02:15:00;9.77;;;3.70;;
66966;SDS011;53900;51.468;-2.586;2022-07-23T02:17:26;7.25;;;3.33;;
66966;SDS011;53900;51.468;-2.586;2022-07-23T02:19:51;4.78;;;3.25;;
66966;SDS011;53900;51.468;-2.586;2022-07-23T02:22:16;6.82;;;3.20;;
66966;SDS011;53900;51.468;-2.586;2022-07-23T02:24:42;7.95;;;3.60;;
66966;SDS011;53900;51.468;-2.586;2022-07-23T02:27:07;7.47;;;3.08;;
66966;SDS011;53900;51.468;-2.586;2022-07-23T02:29:33;5.90;;;2.83;;
66966;SDS011;53900;51.468;-2.586;2022-07-23T02:31:58;7.85;;;3.10;;
66966;SDS011;53900;51.468;-2.586;2022-07-23T02:34:23;8.55;;;3.40;;
66966;SDS011;53900;51.468;-2.586;2022-07-23T02:36:49;5.55;;;2.63;;
66966;SDS011;53900;51.468;-2.586;2022-07-23T02:39:14;8.98;;;3.00;;
66966;SDS011;53900;51.468;-2.586;2022-07-23T02:41:39;9.27;;;2.92;;
66966;SDS011;53900;51.468;-2.586;2022-07-23T02:44:05;10.65;;;3.85;;
66966;SDS011;53900;51.468;-2.586;2022-07-23T02:46:30;6.25;;;2.90;;
66966;SDS011;53900;51.468;-2.586;2022-07-23T02:48:56;5.25;;;2.92;;
66966;SDS011;53900;51.468;-2.586;2022-07-23T02:51:21;5.53;;;2.88;;
66966;SDS011;53900;51.468;-2.586;2022-07-23T02:53:46;6.82;;;2.88;;
66966;SDS011;53900;51.468;-2.586;2022-07-23T02:56:12;5.28;;;2.70;;
66966;SDS011;53900;51.468;-2.586;2022-07-23T02:58:37;6.97;;;3.10;;
66966;SDS011;53900;51.468;-2.586;2022-07-23T03:01:03;6.07;;;2.70;;
66966;SDS011;53900;51.468;-2.586;2022-07-23T03:03:28;6.47;;;2.45;;
66966;SDS011;53900;51.468;-2.586;2022-07-23T03:05:54;5.00;;;2.60;;
66966;SDS011;53900;51.468;-2.586;2022-07-23T03:08:19;3.92;;;2.55;;
66966;SDS011;53900;51.468;-2.586;2022-07-23T03:10:44;4.15;;;2.42;;
66966;SDS011;53900;51.468;-2.586;2022-07-23T03:13:10;4.57;;;2.88;;
66966;SDS011;53900;51.468;-2.586;2022-07-23T03:15:35;6.00;;;2.90;;
66966;SDS011;53900;51.468;-2.586;2022-07-23T03:18:01;6.45;;;2.72;;
66966;SDS011;53900;51.468;-2.586;2022-07-23T03:20:26;4.13;;;2.30;;
66966;SDS011;53900;51.468;-2.586;2022-07-23T03:22:51;5.13;;;2.35;;
66966;SDS011;53900;51.468;-2.586;2022-07-23T03:25:17;4.47;;;2.00;;
66966;SDS011;53900;51.468;-2.586;2022-07-23T03:27:42;6.93;;;2.05;;
66966;SDS011;53900;51.468;-2.586;2022-07-23T03:30:10;5.95;;;2.35;;
66966;SDS011;53900;51.468;-2.586;2022-07-23T03:32:36;5.20;;;2.72;;
66966;SDS011;53900;51.468;-2.586;2022-07-23T03:35:02;8.05;;;2.97;;
66966;SDS011;53900;51.468;-2.586;2022-07-23T03:37:27;6.97;;;2.78;;
66966;SDS011;53900;51.468;-2.586;2022-07-23T03:39:53;8.07;;;3.55;;
66966;SDS011;53900;51.468;-2.586;2022-07-23T03:42:18;6.22;;;2.50;;
66966;SDS011;53900;51.468;-2.586;2022-07-23T03:44:44;12.30;;;2.45;;
66966;SDS011;53900;51.468;-2.586;2022-07-23T03:47:09;3.67;;;1.73;;
66966;SDS011;53900;51.468;-2.586;2022-07-23T03:49:34;9.57;;;3.05;;
66966;SDS011;53900;51.468;-2.586;2022-07-23T03:52:00;4.35;;;1.98;;
66966;SDS011;53900;51.468;-2.586;2022-07-23T03:54:26;5.45;;;2.22;;
66966;SDS011;53900;51.468;-2.586;2022-07-23T03:56:51;6.22;;;2.60;;
66966;SDS011;53900;51.468;-2.586;2022-07-23T03:59:17;13.18;;;2.92;;
66966;SDS011;53900;51.468;-2.586;2022-07-23T04:01:42;4.72;;;2.35;;
66966;SDS011;53900;51.468;-2.586;2022-07-23T04:04:08;5.18;;;2.80;;
66966;SDS011;53900;51.468;-2.586;2022-07-23T04:06:33;3.63;;;2.30;;
66966;SDS011;53900;51.468;-2.586;2022-07-23T04:08:59;8.15;;;2.38;;
66966;SDS011;53900;51.468;-2.586;2022-07-23T04:11:25;5.28;;;2.30;;
66966;SDS011;53900;51.468;-2.586;2022-07-23T04:13:51;6.80;;;2.30;;
66966;SDS011;53900;51.468;-2.586;2022-07-23T04:16:16;11.27;;;2.95;;
66966;SDS011;53900;51.468;-2.586;2022-07-23T04:18:42;3.72;;;2.08;;
66966;SDS011;53900;51.468;-2.586;2022-07-23T04:21:07;8.38;;;3.03;;
66966;SDS011;53900;51.468;-2.586;2022-07-23T04:23:32;5.10;;;2.85;;
66966;SDS011;53900;51.468;-2.586;2022-07-23T04:25:58;10.55;;;2.75;;
66966;SDS011;53900;51.468;-2.586;2022-07-23T04:28:23;7.05;;;2.83;;
66966;SDS011;53900;51.468;-2.586;2022-07-23T04:30:49;5.85;;;3.03;;
66966;SDS011;53900;51.468;-2.586;2022-07-23T04:33:14;8.40;;;2.90;;
66966;SDS011;53900;51.468;-2.586;2022-07-23T04:35:39;5.88;;;2.33;;
66966;SDS011;53900;51.468;-2.586;2022-07-23T04:38:05;5.13;;;2.53;;
66966;SDS011;53900;51.468;-2.586;2022-07-23T04:40:30;5.90;;;2.38;;
66966;SDS011;53900;51.468;-2.586;2022-07-23T04:42:56;10.18;;;2.97;;
66966;SDS011;53900;51.468;-2.586;2022-07-23T04:45:22;4.93;;;2.53;;
66966;SDS011;53900;51.468;-2.586;2022-07-23T04:47:48;7.00;;;2.70;;
66966;SDS011;53900;51.468;-2.586;2022-07-23T04:50:14;10.32;;;2.80;;
66966;SDS011;53900;51.468;-2.586;2022-07-23T04:52:43;5.45;;;2.60;;
66966;SDS011;53900;51.468;-2.586;2022-07-23T04:55:09;3.90;;;2.47;;
66966;SDS011;53900;51.468;-2.586;2022-07-23T04:57:35;5.20;;;2.40;;
66966;SDS011;53900;51.468;-2.586;2022-07-23T05:00:00;5.40;;;2.45;;
66966;SDS011;53900;51.468;-2.586;2022-07-23T05:02:26;6.70;;;2.97;;
66966;SDS011;53900;51.468;-2.586;2022-07-23T05:04:51;7.53;;;3.00;;
66966;SDS011;53900;51.468;-2.586;2022-07-23T05:07:17;9.95;;;3.17;;
66966;SDS011;53900;51.468;-2.586;2022-07-23T05:09:42;8.57;;;3.10;;
66966;SDS011;53900;51.468;-2.586;2022-07-23T05:12:08;10.60;;;3.28;;
66966;SDS011;53900;51.468;-2.586;2022-07-23T05:14:33;9.07;;;2.85;;
66966;SDS011;53900;51.468;-2.586;2022-07-23T05:16:58;5.05;;;3.03;;
66966;SDS011;53900;51.468;-2.586;2022-07-23T05:19:24;10.13;;;2.90;;
66966;SDS011;53900;51.468;-2.586;2022-07-23T05:21:49;5.65;;;2.90;;
66966;SDS011;53900;51.468;-2.586;2022-07-23T05:24:15;5.38;;;2.78;;
66966;SDS011;53900;51.468;-2.586;2022-07-23T05:26:40;6.55;;;2.67;;
66966;SDS011;53900;51.468;-2.586;2022-07-23T05:29:05;5.70;;;2.65;;
66966;SDS011;53900;51.468;-2.586;2022-07-23T05:31:31;5.95;;;3.10;;
66966;SDS011;53900;51.468;-2.586;2022-07-23T05:33:56;6.90;;;3.03;;
66966;SDS011;53900;51.468;-2.586;2022-07-23T05:36:22;6.88;;;3.08;;
66966;SDS011;53900;51.468;-2.586;2022-07-23T05:38:47;5.85;;;2.47;;
66966;SDS011;53900;51.468;-2.586;2022-07-23T05:41:12;7.30;;;2.78;;
66966;SDS011;53900;51.468;-2.586;2022-07-23T05:43:38;4.97;;;2.70;;
66966;SDS011;53900;51.468;-2.586;2022-07-23T05:46:03;6.25;;;2.80;;
66966;SDS011;53900;51.468;-2.586;2022-07-23T05:48:29;8.32;;;3.00;;
66966;SDS011;53900;51.468;-2.586;2022-07-23T05:50:54;7.70;;;2.88;;
66966;SDS011;53900;51.468;-2.586;2022-07-23T05:53:19;7.25;;;3.10;;
66966;SDS011;53900;51.468;-2.586;2022-07-23T05:55:45;7.05;;;2.60;;
66966;SDS011;53900;51.468;-2.586;2022-07-23T05:58:10;5.60;;;2.85;;
66966;SDS011;53900;51.468;-2.586;2022-07-23T06:00:36;4.95;;;2.47;;
66966;SDS011;53900;51.468;-2.586;2022-07-23T06:03:01;7.38;;;3.13;;
66966;SDS011;53900;51.468;-2.586;2022-07-23T06:05:27;8.93;;;3.13;;
66966;SDS011;53900;51.468;-2.586;2022-07-23T06:07:52;5.85;;;2.97;;
66966;SDS011;53900;51.468;-2.586;2022-07-23T06:10:18;6.03;;;2.80;;
66966;SDS011;53900;51.468;-2.586;2022-07-23T06:12:43;10.20;;;2.92;;
66966;SDS011;53900;51.468;-2.586;2022-07-23T06:15:09;8.20;;;2.75;;
66966;SDS011;53900;51.468;-2.586;2022-07-23T06:17:35;7.72;;;2.78;;
66966;SDS011;53900;51.468;-2.586;2022-07-23T06:20:00;7.57;;;2.92;;
66966;SDS011;53900;51.468;-2.586;2022-07-23T06:22:26;6.05;;;3.05;;
66966;SDS011;53900;51.468;-2.586;2022-07-23T06:24:51;6.57;;;2.60;;
66966;SDS011;53900;51.468;-2.586;2022-07-23T06:27:17;4.40;;;2.50;;
66966;SDS011;53900;51.468;-2.586;2022-07-23T06:29:43;8.25;;;2.65;;
66966;SDS011;53900;51.468;-2.586;2022-07-23T06:32:08;4.53;;;2.47;;
66966;SDS011;53900;51.468;-2.586;2022-07-23T06:34:34;4.22;;;2.20;;
66966;SDS011;53900;51.468;-2.586;2022-07-23T06:37:00;4.35;;;2.33;;
66966;SDS011;53900;51.468;-2.586;2022-07-23T06:39:25;5.10;;;2.53;;
66966;SDS011;53900;51.468;-2.586;2022-07-23T06:41:51;6.38;;;2.50;;
66966;SDS011;53900;51.468;-2.586;2022-07-23T06:44:17;7.00;;;2.35;;
66966;SDS011;53900;51.468;-2.586;2022-07-23T06:46:43;7.18;;;3.33;;
66966;SDS011;53900;51.468;-2.586;2022-07-23T06:49:08;7.10;;;2.55;;
66966;SDS011;53900;51.468;-2.586;2022-07-23T06:51:34;5.55;;;1.95;;
66966;SDS011;53900;51.468;-2.586;2022-07-23T06:53:59;6.25;;;2.60;;
66966;SDS011;53900;51.468;-2.586;2022-07-23T06:56:25;4.80;;;1.90;;
66966;SDS011;53900;51.468;-2.586;2022-07-23T06:58:50;5.28;;;2.38;;
66966;SDS011;53900;51.468;-2.586;2022-07-23T07:01:15;4.47;;;2.10;;
66966;SDS011;53900;51.468;-2.586;2022-07-23T07:03:41;5.38;;;1.92;;
66966;SDS011;53900;51.468;-2.586;2022-07-23T07:06:06;6.50;;;2.00;;
66966;SDS011;53900;51.468;-2.586;2022-07-23T07:08:32;4.53;;;1.75;;
66966;SDS011;53900;51.468;-2.586;2022-07-23T07:10:57;4.55;;;1.80;;
66966;SDS011;53900;51.468;-2.586;2022-07-23T07:13:23;4.60;;;1.75;;
66966;SDS011;53900;51.468;-2.586;2022-07-23T07:15:48;4.80;;;1.50;;
66966;SDS011;53900;51.468;-2.586;2022-07-23T07:18:13;5.05;;;1.67;;
66966;SDS011;53900;51.468;-2.586;2022-07-23T07:20:39;2.67;;;1.50;;
66966;SDS011;53900;51.468;-2.586;2022-07-23T07:23:04;3.05;;;1.50;;
66966;SDS011;53900;51.468;-2.586;2022-07-23T07:25:30;5.32;;;1.58;;
66966;SDS011;53900;51.468;-2.586;2022-07-23T07:27:55;2.38;;;1.50;;
66966;SDS011;53900;51.468;-2.586;2022-07-23T07:30:20;3.00;;;1.70;;
66966;SDS011;53900;51.468;-2.586;2022-07-23T07:32:46;4.18;;;1.60;;
66966;SDS011;53900;51.468;-2.586;2022-07-23T07:35:11;4.65;;;1.75;;
66966;SDS011;53900;51.468;-2.586;2022-07-23T07:37:37;2.80;;;1.40;;
66966;SDS011;53900;51.468;-2.586;2022-07-23T07:40:02;3.63;;;1.45;;
66966;SDS011;53900;51.468;-2.586;2022-07-23T07:42:28;3.50;;;1.40;;
66966;SDS011;53900;51.468;-2.586;2022-07-23T07:44:53;2.75;;;1.35;;
66966;SDS011;53900;51.468;-2.586;2022-07-23T07:47:19;2.67;;;1.30;;
66966;SDS011;53900;51.468;-2.586;2022-07-23T07:49:44;2.10;;;1.40;;
66966;SDS011;53900;51.468;-2.586;2022-07-23T07:52:10;2.65;;;1.40;;
66966;SDS011;53900;51.468;-2.586;2022-07-23T07:54:36;2.20;;;1.33;;
66966;SDS011;53900;51.468;-2.586;2022-07-23T07:57:01;7.53;;;1.90;;
66966;SDS011;53900;51.468;-2.586;2022-07-23T07:59:27;6.00;;;2.35;;
66966;SDS011;53900;51.468;-2.586;2022-07-23T08:01:52;3.78;;;1.10;;
66966;SDS011;53900;51.468;-2.586;2022-07-23T08:04:17;2.13;;;1.00;;
66966;SDS011;53900;51.468;-2.586;2022-07-23T08:06:43;2.50;;;1.15;;
66966;SDS011;53900;51.468;-2.586;2022-07-23T08:09:09;2.22;;;1.00;;
66966;SDS011;53900;51.468;-2.586;2022-07-23T08:11:34;3.30;;;1.10;;
66966;SDS011;53900;51.468;-2.586;2022-07-23T08:14:00;3.10;;;1.20;;
66966;SDS011;53900;51.468;-2.586;2022-07-23T08:16:25;1.63;;;0.98;;
66966;SDS011;53900;51.468;-2.586;2022-07-23T08:18:51;1.40;;;1.10;;
66966;SDS011;53900;51.468;-2.586;2022-07-23T08:21:16;3.28;;;1.30;;
66966;SDS011;53900;51.468;-2.586;2022-07-23T08:23:41;3.17;;;1.02;;
66966;SDS011;53900;51.468;-2.586;2022-07-23T08:26:07;1.85;;;0.90;;
66966;SDS011;53900;51.468;-2.586;2022-07-23T08:28:32;1.75;;;0.98;;
66966;SDS011;53900;51.468;-2.586;2022-07-23T08:30:58;1.52;;;0.88;;
66966;SDS011;53900;51.468;-2.586;2022-07-23T08:33:23;1.45;;;0.88;;
66966;SDS011;53900;51.468;-2.586;2022-07-23T08:35:49;1.75;;;0.90;;
66966;SDS011;53900;51.468;-2.586;2022-07-23T08:38:19;0.60;;;0.60;;
66966;SDS011;53900;51.468;-2.586;2022-07-23T08:40:47;0.70;;;0.70;;
66966;SDS011;53900;51.468;-2.586;2022-07-23T08:43:14;0.88;;;0.88;;
66966;SDS011;53900;51.468;-2.586;2022-07-23T08:45:43;1.42;;;0.70;;
66966;SDS011;53900;51.468;-2.586;2022-07-23T08:48:11;4.45;;;1.08;;
66966;SDS011;53900;51.468;-2.586;2022-07-23T08:50:51;4.25;;;1.00;;
66966;SDS011;53900;51.468;-2.586;2022-07-23T08:53:19;1.27;;;0.70;;
66966;SDS011;53900;51.468;-2.586;2022-07-23T08:55:49;5.32;;;1.05;;
66966;SDS011;53900;51.468;-2.586;2022-07-23T08:58:16;0.88;;;0.88;;
66966;SDS011;53900;51.468;-2.586;2022-07-23T09:00:41;1.25;;;0.90;;
66966;SDS011;53900;51.468;-2.586;2022-07-23T09:03:07;4.10;;;1.00;;
66966;SDS011;53900;51.468;-2.586;2022-07-23T09:05:40;3.53;;;0.95;;
66966;SDS011;53900;51.468;-2.586;2022-07-23T09:08:07;3.80;;;1.10;;
66966;SDS011;53900;51.468;-2.586;2022-07-23T09:10:43;1.88;;;1.00;;
66966;SDS011;53900;51.468;-2.586;2022-07-23T09:16:00;3.45;;;1.17;;
66966;SDS011;53900;51.468;-2.586;2022-07-23T09:18:33;2.20;;;1.00;;
66966;SDS011;53900;51.468;-2.586;2022-07-23T09:24:01;3.88;;;1.13;;
66966;SDS011;53900;51.468;-2.586;2022-07-23T09:26:32;1.05;;;1.00;;
66966;SDS011;53900;51.468;-2.586;2022-07-23T09:29:26;1.63;;;1.08;;
66966;SDS011;53900;51.468;-2.586;2022-07-23T09:34:23;5.13;;;1.10;;
66966;SDS011;53900;51.468;-2.586;2022-07-23T09:36:54;1.42;;;1.02;;
66966;SDS011;53900;51.468;-2.586;2022-07-23T09:39:31;1.92;;;1.00;;
66966;SDS011;53900;51.468;-2.586;2022-07-23T09:41:58;1.73;;;1.23;;
66966;SDS011;53900;51.468;-2.586;2022-07-23T09:44:40;2.33;;;1.00;;
66966;SDS011;53900;51.468;-2.586;2022-07-23T09:47:07;1.30;;;1.00;;
66966;SDS011;53900;51.468;-2.586;2022-07-23T09:49:32;2.95;;;1.00;;
66966;SDS011;53900;51.468;-2.586;2022-07-23T09:51:58;3.25;;;1.08;;
66966;SDS011;53900;51.468;-2.586;2022-07-23T09:54:28;1.60;;;1.27;;
66966;SDS011;53900;51.468;-2.586;2022-07-23T09:56:56;1.75;;;1.20;;
66966;SDS011;53900;51.468;-2.586;2022-07-23T09:59:23;5.68;;;1.20;;
66966;SDS011;53900;51.468;-2.586;2022-07-23T10:01:59;2.13;;;1.20;;
66966;SDS011;53900;51.468;-2.586;2022-07-23T10:04:26;1.90;;;1.30;;
66966;SDS011;53900;51.468;-2.586;2022-07-23T10:06:54;1.55;;;1.13;;
66966;SDS011;53900;51.468;-2.586;2022-07-23T10:09:23;1.52;;;1.30;;
66966;SDS011;53900;51.468;-2.586;2022-07-23T10:11:53;3.65;;;1.55;;
66966;SDS011;53900;51.468;-2.586;2022-07-23T10:14:23;1.65;;;1.40;;
66966;SDS011;53900;51.468;-2.586;2022-07-23T10:16:49;4.45;;;1.80;;
66966;SDS011;53900;51.468;-2.586;2022-07-23T10:19:14;3.38;;;1.70;;
66966;SDS011;53900;51.468;-2.586;2022-07-23T10:21:40;1.77;;;1.50;;
66966;SDS011;53900;51.468;-2.586;2022-07-23T10:24:20;3.13;;;1.50;;
66966;SDS011;53900;51.468;-2.586;2022-07-23T10:29:47;4.25;;;1.30;;
66966;SDS011;53900;51.468;-2.586;2022-07-23T10:35:09;2.00;;;1.27;;
66966;SDS011;53900;51.468;-2.586;2022-07-23T10:37:39;2.58;;;1.38;;
66966;SDS011;53900;51.468;-2.586;2022-07-23T10:40:11;1.80;;;1.40;;
66966;SDS011;53900;51.468;-2.586;2022-07-23T10:42:37;2.10;;;1.30;;
66966;SDS011;53900;51.468;-2.586;2022-07-23T10:45:22;2.15;;;1.15;;
66966;SDS011;53900;51.468;-2.586;2022-07-23T10:48:14;2.67;;;1.20;;
66966;SDS011;53900;51.468;-2.586;2022-07-23T10:50:42;7.25;;;1.13;;
66966;SDS011;53900;51.468;-2.586;2022-07-23T10:53:09;4.53;;;1.00;;
66966;SDS011;53900;51.468;-2.586;2022-07-23T10:58:03;2.00;;;1.10;;
66966;SDS011;53900;51.468;-2.586;2022-07-23T11:00:30;1.45;;;1.08;;
66966;SDS011;53900;51.468;-2.586;2022-07-23T11:03:00;0.88;;;0.88;;
66966;SDS011;53900;51.468;-2.586;2022-07-23T11:05:39;2.83;;;0.90;;
66966;SDS011;53900;51.468;-2.586;2022-07-23T11:10:43;3.47;;;1.23;;
66966;SDS011;53900;51.468;-2.586;2022-07-23T11:13:27;5.15;;;1.33;;
66966;SDS011;53900;51.468;-2.586;2022-07-23T11:34:31;2.53;;;1.30;;
66966;SDS011;53900;51.468;-2.586;2022-07-23T11:37:00;2.00;;;1.35;;
66966;SDS011;53900;51.468;-2.586;2022-07-23T11:39:27;1.85;;;1.23;;
66966;SDS011;53900;51.468;-2.586;2022-07-23T11:41:54;1.58;;;1.20;;
66966;SDS011;53900;51.468;-2.586;2022-07-23T11:44:30;2.10;;;1.30;;
66966;SDS011;53900;51.468;-2.586;2022-07-23T11:46:58;4.18;;;1.55;;
66966;SDS011;53900;51.468;-2.586;2022-07-23T11:49:28;5.07;;;1.50;;
66966;SDS011;53900;51.468;-2.586;2022-07-23T11:52:07;2.60;;;1.60;;
66966;SDS011;53900;51.468;-2.586;2022-07-23T11:54:40;2.58;;;1.40;;
66966;SDS011;53900;51.468;-2.586;2022-07-23T11:57:12;1.60;;;1.50;;
66966;SDS011;53900;51.468;-2.586;2022-07-23T11:59:37;2.08;;;1.67;;
66966;SDS011;53900;51.468;-2.586;2022-07-23T12:02:05;3.28;;;1.45;;
66966;SDS011;53900;51.468;-2.586;2022-07-23T12:04:37;1.67;;;1.58;;
66966;SDS011;53900;51.468;-2.586;2022-07-23T12:10:01;2.38;;;1.75;;
66966;SDS011;53900;51.468;-2.586;2022-07-23T12:13:03;2.17;;;1.42;;
66966;SDS011;53900;51.468;-2.586;2022-07-23T12:15:23;2.25;;;1.52;;
66966;SDS011;53900;51.468;-2.586;2022-07-23T12:17:51;2.97;;;1.60;;
66966;SDS011;53900;51.468;-2.586;2022-07-23T12:20:26;3.38;;;1.80;;
66966;SDS011;53900;51.468;-2.586;2022-07-23T12:22:56;3.95;;;1.80;;
66966;SDS011;53900;51.468;-2.586;2022-07-23T12:25:24;2.58;;;1.40;;
66966;SDS011;53900;51.468;-2.586;2022-07-23T12:28:14;4.07;;;1.45;;
66966;SDS011;53900;51.468;-2.586;2022-07-23T12:30:46;3.90;;;1.52;;
66966;SDS011;53900;51.468;-2.586;2022-07-23T12:33:28;2.92;;;1.63;;
66966;SDS011;53900;51.468;-2.586;2022-07-23T12:36:00;2.92;;;1.60;;
66966;SDS011;53900;51.468;-2.586;2022-07-23T12:38:36;3.92;;;1.67;;
66966;SDS011;53900;51.468;-2.586;2022-07-23T12:41:05;2.83;;;1.55;;
66966;SDS011;53900;51.468;-2.586;2022-07-23T12:43:32;7.82;;;2.10;;
66966;SDS011;53900;51.468;-2.586;2022-07-23T12:46:12;3.13;;;1.75;;
66966;SDS011;53900;51.468;-2.586;2022-07-23T12:51:17;2.92;;;1.60;;
66966;SDS011;53900;51.468;-2.586;2022-07-23T12:53:45;4.32;;;1.40;;
66966;SDS011;53900;51.468;-2.586;2022-07-23T12:56:20;3.05;;;1.92;;
66966;SDS011;53900;51.468;-2.586;2022-07-23T12:58:54;2.63;;;1.40;;
66966;SDS011;53900;51.468;-2.586;2022-07-23T13:03:54;3.92;;;1.80;;
66966;SDS011;53900;51.468;-2.586;2022-07-23T13:06:21;8.88;;;1.63;;
66966;SDS011;53900;51.468;-2.586;2022-07-23T13:08:46;4.57;;;1.75;;
66966;SDS011;53900;51.468;-2.586;2022-07-23T13:11:12;3.83;;;1.60;;
66966;SDS011;53900;51.468;-2.586;2022-07-23T13:13:37;5.10;;;1.80;;
66966;SDS011;53900;51.468;-2.586;2022-07-23T13:16:03;4.25;;;1.70;;
66966;SDS011;53900;51.468;-2.586;2022-07-23T13:18:28;5.30;;;2.25;;
66966;SDS011;53900;51.468;-2.586;2022-07-23T13:20:54;4.55;;;1.80;;
66966;SDS011;53900;51.468;-2.586;2022-07-23T13:23:20;3.30;;;1.85;;
66966;SDS011;53900;51.468;-2.586;2022-07-23T13:25:46;4.75;;;2.00;;
66966;SDS011;53900;51.468;-2.586;2022-07-23T13:28:12;3.03;;;1.75;;
66966;SDS011;53900;51.468;-2.586;2022-07-23T13:30:39;4.45;;;1.63;;
66966;SDS011;53900;51.468;-2.586;2022-07-23T13:33:05;3.10;;;2.00;;
66966;SDS011;53900;51.468;-2.586;2022-07-23T13:35:31;3.13;;;1.67;;
66966;SDS011;53900;51.468;-2.586;2022-07-23T13:37:58;4.53;;;1.65;;
66966;SDS011;53900;51.468;-2.586;2022-07-23T13:40:23;3.08;;;1.80;;
66966;SDS011;53900;51.468;-2.586;2022-07-23T13:42:48;4.10;;;2.17;;
66966;SDS011;53900;51.468;-2.586;2022-07-23T13:45:14;2.50;;;1.55;;
66966;SDS011;53900;51.468;-2.586;2022-07-23T13:47:39;3.47;;;1.83;;
66966;SDS011;53900;51.468;-2.586;2022-07-23T13:50:05;3.40;;;1.77;;
66966;SDS011;53900;51.468;-2.586;2022-07-23T13:52:31;2.92;;;1.63;;
66966;SDS011;53900;51.468;-2.586;2022-07-23T13:54:58;3.65;;;2.22;;
66966;SDS011;53900;51.468;-2.586;2022-07-23T13:57:28;6.57;;;2.25;;
66966;SDS011;53900;51.468;-2.586;2022-07-23T13:59:54;6.43;;;1.80;;
66966;SDS011;53900;51.468;-2.586;2022-07-23T14:02:19;4.05;;;1.75;;
66966;SDS011;53900;51.468;-2.586;2022-07-23T14:04:45;3.55;;;1.90;;
66966;SDS011;53900;51.468;-2.586;2022-07-23T14:07:10;3.38;;;1.80;;
66966;SDS011;53900;51.468;-2.586;2022-07-23T14:09:36;2.97;;;1.60;;
66966;SDS011;53900;51.468;-2.586;2022-07-23T14:12:03;6.25;;;2.03;;
66966;SDS011;53900;51.468;-2.586;2022-07-23T14:14:28;5.72;;;1.90;;
66966;SDS011;53900;51.468;-2.586;2022-07-23T14:16:54;2.65;;;1.83;;
66966;SDS011;53900;51.468;-2.586;2022-07-23T14:19:20;6.10;;;2.30;;
66966;SDS011;53900;51.468;-2.586;2022-07-23T14:21:46;3.65;;;1.73;;
66966;SDS011;53900;51.468;-2.586;2022-07-23T14:24:13;3.17;;;1.67;;
66966;SDS011;53900;51.468;-2.586;2022-07-23T14:26:39;5.43;;;1.95;;
66966;SDS011;53900;51.468;-2.586;2022-07-23T14:29:04;4.03;;;2.00;;
66966;SDS011;53900;51.468;-2.586;2022-07-23T14:31:30;3.85;;;1.88;;
66966;SDS011;53900;51.468;-2.586;2022-07-23T14:33:55;5.28;;;2.00;;
66966;SDS011;53900;51.468;-2.586;2022-07-23T14:36:20;4.93;;;2.30;;
66966;SDS011;53900;51.468;-2.586;2022-07-23T14:38:46;6.28;;;2.15;;
66966;SDS011;53900;51.468;-2.586;2022-07-23T14:41:11;2.80;;;2.10;;
66966;SDS011;53900;51.468;-2.586;2022-07-23T14:43:37;5.75;;;2.28;;
66966;SDS011;53900;51.468;-2.586;2022-07-23T14:46:02;5.13;;;2.25;;
66966;SDS011;53900;51.468;-2.586;2022-07-23T14:48:28;6.13;;;2.00;;
66966;SDS011;53900;51.468;-2.586;2022-07-23T14:50:53;6.18;;;2.22;;
66966;SDS011;53900;51.468;-2.586;2022-07-23T14:53:18;4.00;;;2.08;;
66966;SDS011;53900;51.468;-2.586;2022-07-23T14:55:44;4.40;;;2.17;;
66966;SDS011;53900;51.468;-2.586;2022-07-23T14:58:09;3.17;;;2.17;;
66966;SDS011;53900;51.468;-2.586;2022-07-23T15:00:35;5.35;;;2.42;;
66966;SDS011;53900;51.468;-2.586;2022-07-23T15:03:00;4.65;;;2.10;;
66966;SDS011;53900;51.468;-2.586;2022-07-23T15:05:26;4.32;;;2.00;;
66966;SDS011;53900;51.468;-2.586;2022-07-23T15:07:52;3.47;;;2.05;;
66966;SDS011;53900;51.468;-2.586;2022-07-23T15:10:17;4.93;;;2.42;;
66966;SDS011;53900;51.468;-2.586;2022-07-23T15:12:43;5.53;;;2.40;;
66966;SDS011;53900;51.468;-2.586;2022-07-23T15:15:08;12.25;;;2.92;;
66966;SDS011;53900;51.468;-2.586;2022-07-23T15:17:34;6.78;;;2.63;;